sensor_id;sensor_type;location;lat;lon;timestamp;temperature;humidity
21271;DHT22;10795;50.796;3.860;2022-08-18T00:02:00;17.00;99.90
21271;DHT22;10795;50.796;3.860;2022-08-18T00:04:26;17.00;99.90
21271;DHT22;10795;50.796;3.860;2022-08-18T00:06:52;16.90;99.90
21271;DHT22;10795;50.796;3.860;2022-08-18T00:09:18;16.80;99.90
21271;DHT22;10795;50.796;3.860;2022-08-18T00:11:43;16.90;99.90
21271;DHT22;10795;50.796;3.860;2022-08-18T00:14:11;17.50;99.90
21271;DHT22;10795;50.796;3.860;2022-08-18T00:16:38;17.80;99.90
21271;DHT22;10795;50.796;3.860;2022-08-18T00:19:03;17.80;99.90
21271;DHT22;10795;50.796;3.860;2022-08-18T00:21:29;17.60;99.90
21271;DHT22;10795;50.796;3.860;2022-08-18T00:23:54;17.70;99.90
21271;DHT22;10795;50.796;3.860;2022-08-18T00:26:20;17.70;99.90
21271;DHT22;10795;50.796;3.860;2022-08-18T00:28:46;17.70;99.90
21271;DHT22;10795;50.796;3.860;2022-08-18T00:31:12;18.10;99.90
21271;DHT22;10795;50.796;3.860;2022-08-18T00:33:38;18.70;99.90
21271;DHT22;10795;50.796;3.860;2022-08-18T00:36:03;18.20;99.90
21271;DHT22;10795;50.796;3.860;2022-08-18T00:38:29;17.70;99.90
21271;DHT22;10795;50.796;3.860;2022-08-18T00:40:55;17.60;99.90
21271;DHT22;10795;50.796;3.860;2022-08-18T00:43:25;17.30;99.90
21271;DHT22;10795;50.796;3.860;2022-08-18T00:45:53;17.30;99.90
21271;DHT22;10795;50.796;3.860;2022-08-18T00:48:19;17.20;99.90
21271;DHT22;10795;50.796;3.860;2022-08-18T00:53:12;17.30;99.90
21271;DHT22;10795;50.796;3.860;2022-08-18T00:55:39;17.30;99.90
21271;DHT22;10795;50.796;3.860;2022-08-18T00:58:06;17.20;99.90
21271;DHT22;10795;50.796;3.860;2022-08-18T01:00:33;17.30;99.90
21271;DHT22;10795;50.796;3.860;2022-08-18T01:03:01;17.40;99.90
21271;DHT22;10795;50.796;3.860;2022-08-18T01:05:30;17.30;99.90
21271;DHT22;10795;50.796;3.860;2022-08-18T01:07:58;17.40;99.90
21271;DHT22;10795;50.796;3.860;2022-08-18T01:10:24;17.40;99.90
21271;DHT22;10795;50.796;3.860;2022-08-18T01:12:54;17.40;99.90
21271;DHT22;10795;50.796;3.860;2022-08-18T01:15:20;17.50;99.90
21271;DHT22;10795;50.796;3.860;2022-08-18T01:17:46;17.50;99.90
21271;DHT22;10795;50.796;3.860;2022-08-18T01:21:17;17.50;99.90
21271;DHT22;10795;50.796;3.860;2022-08-18T01:23:25;17.50;99.90
21271;DHT22;10795;50.796;3.860;2022-08-18T01:25:52;17.50;99.90
21271;DHT22;10795;50.796;3.860;2022-08-18T01:28:27;17.40;99.90
21271;DHT22;10795;50.796;3.860;2022-08-18T01:30:54;17.50;99.90
21271;DHT22;10795;50.796;3.860;2022-08-18T01:33:33;17.50;99.90
21271;DHT22;10795;50.796;3.860;2022-08-18T01:36:14;17.50;99.90
21271;DHT22;10795;50.796;3.860;2022-08-18T01:38:44;17.50;99.90
21271;DHT22;10795;50.796;3.860;2022-08-18T01:41:10;17.50;99.90
21271;DHT22;10795;50.796;3.860;2022-08-18T01:43:35;17.50;99.90
21271;DHT22;10795;50.796;3.860;2022-08-18T01:46:02;17.40;99.90
21271;DHT22;10795;50.796;3.860;2022-08-18T01:48:32;17.40;99.90
21271;DHT22;10795;50.796;3.860;2022-08-18T01:50:59;17.40;99.90
21271;DHT22;10795;50.796;3.860;2022-08-18T01:53:25;17.40;99.90
21271;DHT22;10795;50.796;3.860;2022-08-18T01:55:51;17.40;99.90
21271;DHT22;10795;50.796;3.860;2022-08-18T01:58:18;17.50;99.90
21271;DHT22;10795;50.796;3.860;2022-08-18T02:00:43;17.50;99.90
21271;DHT22;10795;50.796;3.860;2022-08-18T02:03:10;17.60;99.90
21271;DHT22;10795;50.796;3.860;2022-08-18T02:05:39;17.60;99.90
21271;DHT22;10795;50.796;3.860;2022-08-18T02:08:05;17.60;99.90
21271;DHT22;10795;50.796;3.860;2022-08-18T02:10:33;17.70;99.90
21271;DHT22;10795;50.796;3.860;2022-08-18T02:12:59;17.70;99.90
21271;DHT22;10795;50.796;3.860;2022-08-18T02:15:25;17.60;99.90
21271;DHT22;10795;50.796;3.860;2022-08-18T02:17:51;17.50;99.90
21271;DHT22;10795;50.796;3.860;2022-08-18T02:20:17;17.50;99.90
21271;DHT22;10795;50.796;3.860;2022-08-18T02:22:43;17.60;99.90
21271;DHT22;10795;50.796;3.860;2022-08-18T02:25:09;17.80;99.90
21271;DHT22;10795;50.796;3.860;2022-08-18T02:27:35;17.90;99.90
21271;DHT22;10795;50.796;3.860;2022-08-18T02:30:02;17.80;99.90
21271;DHT22;10795;50.796;3.860;2022-08-18T02:32:28;17.70;99.90
21271;DHT22;10795;50.796;3.860;2022-08-18T02:34:55;17.60;99.90
21271;DHT22;10795;50.796;3.860;2022-08-18T02:37:21;17.50;99.90
21271;DHT22;10795;50.796;3.860;2022-08-18T02:39:47;17.50;99.90
21271;DHT22;10795;50.796;3.860;2022-08-18T02:42:13;17.50;99.90
21271;DHT22;10795;50.796;3.860;2022-08-18T02:44:39;17.60;99.90
21271;DHT22;10795;50.796;3.860;2022-08-18T02:47:04;17.60;99.90
21271;DHT22;10795;50.796;3.860;2022-08-18T02:49:30;17.60;99.90
21271;DHT22;10795;50.796;3.860;2022-08-18T02:51:56;17.60;99.90
21271;DHT22;10795;50.796;3.860;2022-08-18T02:54:22;17.50;99.90
21271;DHT22;10795;50.796;3.860;2022-08-18T02:56:48;17.50;99.90
21271;DHT22;10795;50.796;3.860;2022-08-18T02:59:17;17.60;99.90
21271;DHT22;10795;50.796;3.860;2022-08-18T03:01:47;17.70;99.90
21271;DHT22;10795;50.796;3.860;2022-08-18T03:04:14;17.80;99.90
21271;DHT22;10795;50.796;3.860;2022-08-18T03:06:40;17.90;99.90
21271;DHT22;10795;50.796;3.860;2022-08-18T03:09:07;17.80;99.90
21271;DHT22;10795;50.796;3.860;2022-08-18T03:11:34;17.70;99.90
21271;DHT22;10795;50.796;3.860;2022-08-18T03:13:59;17.60;99.90
21271;DHT22;10795;50.796;3.860;2022-08-18T03:16:25;17.70;99.90
21271;DHT22;10795;50.796;3.860;2022-08-18T03:18:52;17.70;99.90
21271;DHT22;10795;50.796;3.860;2022-08-18T03:21:19;17.60;99.90
21271;DHT22;10795;50.796;3.860;2022-08-18T03:23:49;17.70;99.90
21271;DHT22;10795;50.796;3.860;2022-08-18T03:26:16;17.60;99.90
21271;DHT22;10795;50.796;3.860;2022-08-18T03:28:44;17.70;99.90
21271;DHT22;10795;50.796;3.860;2022-08-18T03:31:11;17.60;99.90
21271;DHT22;10795;50.796;3.860;2022-08-18T03:33:39;17.50;99.90
21271;DHT22;10795;50.796;3.860;2022-08-18T03:36:06;17.60;99.90
21271;DHT22;10795;50.796;3.860;2022-08-18T03:38:32;17.60;99.90
21271;DHT22;10795;50.796;3.860;2022-08-18T03:40:57;17.60;99.90
21271;DHT22;10795;50.796;3.860;2022-08-18T03:43:23;17.60;99.90
21271;DHT22;10795;50.796;3.860;2022-08-18T03:45:49;17.60;99.90
21271;DHT22;10795;50.796;3.860;2022-08-18T03:48:19;17.60;99.90
21271;DHT22;10795;50.796;3.860;2022-08-18T03:50:45;17.70;99.90
21271;DHT22;10795;50.796;3.860;2022-08-18T03:53:12;17.60;99.90
21271;DHT22;10795;50.796;3.860;2022-08-18T03:55:41;17.60;99.90
21271;DHT22;10795;50.796;3.860;2022-08-18T03:58:07;17.60;99.90
21271;DHT22;10795;50.796;3.860;2022-08-18T04:00:36;17.60;99.90
21271;DHT22;10795;50.796;3.860;2022-08-18T04:03:02;17.60;99.90
21271;DHT22;10795;50.796;3.860;2022-08-18T04:05:27;17.60;99.90
21271;DHT22;10795;50.796;3.860;2022-08-18T04:07:54;17.60;99.90
21271;DHT22;10795;50.796;3.860;2022-08-18T04:10:23;17.60;99.90
21271;DHT22;10795;50.796;3.860;2022-08-18T04:12:48;17.60;99.90
21271;DHT22;10795;50.796;3.860;2022-08-18T04:15:14;17.50;99.90
21271;DHT22;10795;50.796;3.860;2022-08-18T04:17:40;17.60;99.90
21271;DHT22;10795;50.796;3.860;2022-08-18T04:20:05;17.60;99.90
21271;DHT22;10795;50.796;3.860;2022-08-18T04:22:31;17.60;99.90
21271;DHT22;10795;50.796;3.860;2022-08-18T04:25:00;17.60;99.90
21271;DHT22;10795;50.796;3.860;2022-08-18T04:27:26;17.60;99.90
21271;DHT22;10795;50.796;3.860;2022-08-18T04:29:52;17.70;99.90
21271;DHT22;10795;50.796;3.860;2022-08-18T04:32:18;17.70;99.90
21271;DHT22;10795;50.796;3.860;2022-08-18T04:34:44;17.70;99.90
21271;DHT22;10795;50.796;3.860;2022-08-18T04:37:10;17.60;99.90
21271;DHT22;10795;50.796;3.860;2022-08-18T04:39:36;17.50;99.90
21271;DHT22;10795;50.796;3.860;2022-08-18T04:42:01;17.50;99.90
21271;DHT22;10795;50.796;3.860;2022-08-18T04:44:28;17.50;99.90
21271;DHT22;10795;50.796;3.860;2022-08-18T04:46:54;17.40;99.90
21271;DHT22;10795;50.796;3.860;2022-08-18T04:49:22;17.50;99.90
21271;DHT22;10795;50.796;3.860;2022-08-18T04:51:50;17.50;99.90
21271;DHT22;10795;50.796;3.860;2022-08-18T04:54:35;17.50;99.90
21271;DHT22;10795;50.796;3.860;2022-08-18T04:57:20;17.60;99.90
21271;DHT22;10795;50.796;3.860;2022-08-18T04:59:48;17.60;99.90
21271;DHT22;10795;50.796;3.860;2022-08-18T05:02:15;17.50;99.90
21271;DHT22;10795;50.796;3.860;2022-08-18T05:04:44;17.60;99.90
21271;DHT22;10795;50.796;3.860;2022-08-18T05:07:18;17.50;99.90
21271;DHT22;10795;50.796;3.860;2022-08-18T05:09:45;17.60;99.90
21271;DHT22;10795;50.796;3.860;2022-08-18T05:12:11;17.60;99.90
21271;DHT22;10795;50.796;3.860;2022-08-18T05:14:38;17.70;99.90
21271;DHT22;10795;50.796;3.860;2022-08-18T05:17:03;17.60;99.90
21271;DHT22;10795;50.796;3.860;2022-08-18T05:19:29;17.60;99.90
21271;DHT22;10795;50.796;3.860;2022-08-18T05:21:55;17.70;99.90
21271;DHT22;10795;50.796;3.860;2022-08-18T05:24:21;17.60;99.90
21271;DHT22;10795;50.796;3.860;2022-08-18T05:26:50;17.50;99.90
21271;DHT22;10795;50.796;3.860;2022-08-18T05:29:17;17.60;99.90
21271;DHT22;10795;50.796;3.860;2022-08-18T05:31:43;17.50;99.90
21271;DHT22;10795;50.796;3.860;2022-08-18T05:34:08;17.50;99.90
21271;DHT22;10795;50.796;3.860;2022-08-18T05:42:05;17.60;99.90
21271;DHT22;10795;50.796;3.860;2022-08-18T05:44:31;17.50;99.90
21271;DHT22;10795;50.796;3.860;2022-08-18T05:49:26;17.70;99.90
21271;DHT22;10795;50.796;3.860;2022-08-18T05:52:00;17.80;99.90
21271;DHT22;10795;50.796;3.860;2022-08-18T05:54:26;17.90;99.90
21271;DHT22;10795;50.796;3.860;2022-08-18T05:57:15;18.00;99.90
21271;DHT22;10795;50.796;3.860;2022-08-18T05:59:41;18.00;99.90
21271;DHT22;10795;50.796;3.860;2022-08-18T06:02:13;18.10;99.90
21271;DHT22;10795;50.796;3.860;2022-08-18T06:04:51;18.10;99.90
21271;DHT22;10795;50.796;3.860;2022-08-18T06:07:22;18.10;99.90
21271;DHT22;10795;50.796;3.860;2022-08-18T06:09:51;17.90;99.90
21271;DHT22;10795;50.796;3.860;2022-08-18T06:12:30;18.70;99.90
21271;DHT22;10795;50.796;3.860;2022-08-18T06:15:03;18.80;99.90
21271;DHT22;10795;50.796;3.860;2022-08-18T06:17:34;18.90;99.90
21271;DHT22;10795;50.796;3.860;2022-08-18T06:22:39;18.60;99.90
21271;DHT22;10795;50.796;3.860;2022-08-18T06:28:02;18.60;99.90
21271;DHT22;10795;50.796;3.860;2022-08-18T06:30:38;18.80;99.90
21271;DHT22;10795;50.796;3.860;2022-08-18T06:33:15;19.20;99.90
21271;DHT22;10795;50.796;3.860;2022-08-18T06:38:25;19.70;99.90
21271;DHT22;10795;50.796;3.860;2022-08-18T06:41:13;19.80;99.90
21271;DHT22;10795;50.796;3.860;2022-08-18T06:44:01;19.80;99.90
21271;DHT22;10795;50.796;3.860;2022-08-18T06:46:33;20.00;99.90
21271;DHT22;10795;50.796;3.860;2022-08-18T06:49:02;19.70;99.90
21271;DHT22;10795;50.796;3.860;2022-08-18T06:51:28;19.60;99.90
21271;DHT22;10795;50.796;3.860;2022-08-18T06:54:03;19.70;99.90
21271;DHT22;10795;50.796;3.860;2022-08-18T06:59:14;20.40;99.90
21271;DHT22;10795;50.796;3.860;2022-08-18T07:01:41;20.20;99.90
21271;DHT22;10795;50.796;3.860;2022-08-18T07:04:07;20.10;99.90
21271;DHT22;10795;50.796;3.860;2022-08-18T07:06:33;19.50;99.90
21271;DHT22;10795;50.796;3.860;2022-08-18T07:09:20;19.40;99.90
21271;DHT22;10795;50.796;3.860;2022-08-18T07:11:57;19.30;99.90
21271;DHT22;10795;50.796;3.860;2022-08-18T07:14:23;19.50;99.90
21271;DHT22;10795;50.796;3.860;2022-08-18T07:16:50;19.90;99.90
21271;DHT22;10795;50.796;3.860;2022-08-18T07:19:30;20.10;99.90
21271;DHT22;10795;50.796;3.860;2022-08-18T07:22:00;20.40;99.90
21271;DHT22;10795;50.796;3.860;2022-08-18T07:24:27;20.10;99.90
21271;DHT22;10795;50.796;3.860;2022-08-18T07:29:23;20.20;99.90
21271;DHT22;10795;50.796;3.860;2022-08-18T07:31:49;20.70;99.90
21271;DHT22;10795;50.796;3.860;2022-08-18T07:39:42;20.60;99.90
21271;DHT22;10795;50.796;3.860;2022-08-18T07:42:12;20.70;99.90
21271;DHT22;10795;50.796;3.860;2022-08-18T07:47:14;20.80;99.90
21271;DHT22;10795;50.796;3.860;2022-08-18T07:49:40;21.30;99.90
21271;DHT22;10795;50.796;3.860;2022-08-18T07:52:17;21.10;99.90
21271;DHT22;10795;50.796;3.860;2022-08-18T07:57:14;20.90;99.90
21271;DHT22;10795;50.796;3.860;2022-08-18T08:00:04;21.30;99.90
21271;DHT22;10795;50.796;3.860;2022-08-18T08:05:42;22.70;99.90
21271;DHT22;10795;50.796;3.860;2022-08-18T08:08:13;23.40;99.90
21271;DHT22;10795;50.796;3.860;2022-08-18T08:10:46;23.80;99.90
21271;DHT22;10795;50.796;3.860;2022-08-18T08:16:04;24.10;99.90
21271;DHT22;10795;50.796;3.860;2022-08-18T08:18:37;24.30;99.90
21271;DHT22;10795;50.796;3.860;2022-08-18T08:21:05;24.20;99.90
21271;DHT22;10795;50.796;3.860;2022-08-18T08:33:43;25.10;99.90
21271;DHT22;10795;50.796;3.860;2022-08-18T08:36:10;25.50;99.90
21271;DHT22;10795;50.796;3.860;2022-08-18T08:38:45;25.50;99.90
21271;DHT22;10795;50.796;3.860;2022-08-18T08:46:29;26.20;99.90
21271;DHT22;10795;50.796;3.860;2022-08-18T08:49:00;26.20;99.90
21271;DHT22;10795;50.796;3.860;2022-08-18T08:54:07;25.60;99.90
21271;DHT22;10795;50.796;3.860;2022-08-18T08:56:37;25.40;99.90
21271;DHT22;10795;50.796;3.860;2022-08-18T08:59:06;25.30;99.90
21271;DHT22;10795;50.796;3.860;2022-08-18T09:01:42;25.50;99.90
21271;DHT22;10795;50.796;3.860;2022-08-18T09:04:18;26.10;99.90
21271;DHT22;10795;50.796;3.860;2022-08-18T09:09:32;26.90;99.90
21271;DHT22;10795;50.796;3.860;2022-08-18T09:14:56;26.80;99.90
21271;DHT22;10795;50.796;3.860;2022-08-18T09:19:57;27.50;99.90
21271;DHT22;10795;50.796;3.860;2022-08-18T09:25:07;27.20;99.90
21271;DHT22;10795;50.796;3.860;2022-08-18T09:30:00;27.50;99.90
21271;DHT22;10795;50.796;3.860;2022-08-18T09:37:32;28.70;99.90
21271;DHT22;10795;50.796;3.860;2022-08-18T09:42:50;29.00;99.90
21271;DHT22;10795;50.796;3.860;2022-08-18T09:53:13;29.00;99.90
21271;DHT22;10795;50.796;3.860;2022-08-18T09:55:41;29.00;99.90
21271;DHT22;10795;50.796;3.860;2022-08-18T10:01:03;28.30;99.90
21271;DHT22;10795;50.796;3.860;2022-08-18T10:03:32;28.20;99.90
21271;DHT22;10795;50.796;3.860;2022-08-18T10:06:02;28.50;99.90
21271;DHT22;10795;50.796;3.860;2022-08-18T10:09:15;29.20;99.90
21271;DHT22;10795;50.796;3.860;2022-08-18T10:14:21;30.50;99.90
21271;DHT22;10795;50.796;3.860;2022-08-18T10:16:53;30.30;99.90
21271;DHT22;10795;50.796;3.860;2022-08-18T10:19:31;30.30;99.90
21271;DHT22;10795;50.796;3.860;2022-08-18T10:22:00;29.70;99.90
21271;DHT22;10795;50.796;3.860;2022-08-18T10:24:32;30.00;99.90
21271;DHT22;10795;50.796;3.860;2022-08-18T10:27:00;30.00;99.90
21271;DHT22;10795;50.796;3.860;2022-08-18T10:34:41;29.80;99.90
21271;DHT22;10795;50.796;3.860;2022-08-18T10:37:24;29.30;99.90
21271;DHT22;10795;50.796;3.860;2022-08-18T10:42:27;28.30;99.90
21271;DHT22;10795;50.796;3.860;2022-08-18T10:45:02;27.70;99.90
21271;DHT22;10795;50.796;3.860;2022-08-18T10:47:30;27.70;99.90
21271;DHT22;10795;50.796;3.860;2022-08-18T10:49:56;28.60;99.90
21271;DHT22;10795;50.796;3.860;2022-08-18T10:55:04;28.70;99.90
21271;DHT22;10795;50.796;3.860;2022-08-18T11:00:18;30.80;99.90
21271;DHT22;10795;50.796;3.860;2022-08-18T11:05:10;31.30;99.90
21271;DHT22;10795;50.796;3.860;2022-08-18T11:07:37;31.00;99.90
21271;DHT22;10795;50.796;3.860;2022-08-18T11:10:15;30.60;99.90
21271;DHT22;10795;50.796;3.860;2022-08-18T11:15:29;30.30;99.90
21271;DHT22;10795;50.796;3.860;2022-08-18T11:20:29;29.90;99.90
21271;DHT22;10795;50.796;3.860;2022-08-18T11:22:56;29.50;99.90
21271;DHT22;10795;50.796;3.860;2022-08-18T11:25:25;29.60;99.90
21271;DHT22;10795;50.796;3.860;2022-08-18T11:27:52;29.10;99.90
21271;DHT22;10795;50.796;3.860;2022-08-18T11:30:18;29.10;99.90
21271;DHT22;10795;50.796;3.860;2022-08-18T11:32:44;29.40;99.90
21271;DHT22;10795;50.796;3.860;2022-08-18T11:35:12;30.00;99.90
21271;DHT22;10795;50.796;3.860;2022-08-18T11:42:37;30.80;99.90
21271;DHT22;10795;50.796;3.860;2022-08-18T11:45:17;31.30;99.90
21271;DHT22;10795;50.796;3.860;2022-08-18T11:50:25;31.60;99.90
21271;DHT22;10795;50.796;3.860;2022-08-18T11:52:51;32.00;99.90
21271;DHT22;10795;50.796;3.860;2022-08-18T11:55:19;32.10;99.90
21271;DHT22;10795;50.796;3.860;2022-08-18T11:57:54;32.40;99.90
21271;DHT22;10795;50.796;3.860;2022-08-18T12:03:02;31.30;99.90
21271;DHT22;10795;50.796;3.860;2022-08-18T12:05:28;30.90;99.90
21271;DHT22;10795;50.796;3.860;2022-08-18T12:07:54;30.20;99.90
21271;DHT22;10795;50.796;3.860;2022-08-18T12:10:24;30.90;99.90
21271;DHT22;10795;50.796;3.860;2022-08-18T12:12:52;31.80;99.90
21271;DHT22;10795;50.796;3.860;2022-08-18T12:17:44;30.90;99.90
21271;DHT22;10795;50.796;3.860;2022-08-18T12:20:10;30.70;99.90
21271;DHT22;10795;50.796;3.860;2022-08-18T12:22:38;31.10;99.90
21271;DHT22;10795;50.796;3.860;2022-08-18T12:25:05;31.40;99.90
21271;DHT22;10795;50.796;3.860;2022-08-18T12:27:31;31.10;99.90
21271;DHT22;10795;50.796;3.860;2022-08-18T12:29:57;32.00;99.90
21271;DHT22;10795;50.796;3.860;2022-08-18T12:32:25;32.90;99.90
21271;DHT22;10795;50.796;3.860;2022-08-18T12:34:51;32.90;99.90
21271;DHT22;10795;50.796;3.860;2022-08-18T12:37:18;33.30;99.90
21271;DHT22;10795;50.796;3.860;2022-08-18T12:39:44;33.10;99.90
21271;DHT22;10795;50.796;3.860;2022-08-18T12:42:10;33.30;99.90
21271;DHT22;10795;50.796;3.860;2022-08-18T12:44:36;33.20;99.90
21271;DHT22;10795;50.796;3.860;2022-08-18T12:47:04;32.80;99.90
21271;DHT22;10795;50.796;3.860;2022-08-18T12:49:31;32.90;99.90
21271;DHT22;10795;50.796;3.860;2022-08-18T12:51:57;32.20;99.90
21271;DHT22;10795;50.796;3.860;2022-08-18T12:54:22;32.00;99.90
21271;DHT22;10795;50.796;3.860;2022-08-18T12:56:49;32.10;99.90
21271;DHT22;10795;50.796;3.860;2022-08-18T12:59:15;32.50;99.90
21271;DHT22;10795;50.796;3.860;2022-08-18T13:01:41;31.60;99.90
21271;DHT22;10795;50.796;3.860;2022-08-18T13:04:07;31.80;99.90
21271;DHT22;10795;50.796;3.860;2022-08-18T13:06:33;31.50;99.90
21271;DHT22;10795;50.796;3.860;2022-08-18T13:09:00;31.70;99.90
21271;DHT22;10795;50.796;3.860;2022-08-18T13:11:25;31.70;99.90
21271;DHT22;10795;50.796;3.860;2022-08-18T13:13:52;32.20;99.90
21271;DHT22;10795;50.796;3.860;2022-08-18T13:16:18;32.40;99.90
21271;DHT22;10795;50.796;3.860;2022-08-18T13:18:43;32.10;99.90
21271;DHT22;10795;50.796;3.860;2022-08-18T13:21:10;31.20;99.90
21271;DHT22;10795;50.796;3.860;2022-08-18T13:23:37;30.60;99.90
21271;DHT22;10795;50.796;3.860;2022-08-18T13:26:03;31.70;99.90
21271;DHT22;10795;50.796;3.860;2022-08-18T13:28:31;29.90;99.90
21271;DHT22;10795;50.796;3.860;2022-08-18T13:30:57;28.80;99.90
21271;DHT22;10795;50.796;3.860;2022-08-18T13:33:22;27.90;99.90
21271;DHT22;10795;50.796;3.860;2022-08-18T13:35:49;27.80;99.90
21271;DHT22;10795;50.796;3.860;2022-08-18T13:38:15;28.30;99.90
21271;DHT22;10795;50.796;3.860;2022-08-18T13:40:45;30.60;99.90
21271;DHT22;10795;50.796;3.860;2022-08-18T13:43:13;31.10;99.90
21271;DHT22;10795;50.796;3.860;2022-08-18T13:45:39;31.30;99.90
21271;DHT22;10795;50.796;3.860;2022-08-18T13:48:05;31.20;99.90
21271;DHT22;10795;50.796;3.860;2022-08-18T13:50:31;31.80;99.90
21271;DHT22;10795;50.796;3.860;2022-08-18T13:52:57;31.80;99.90
21271;DHT22;10795;50.796;3.860;2022-08-18T13:55:26;32.00;99.90
21271;DHT22;10795;50.796;3.860;2022-08-18T13:57:53;32.10;99.90
21271;DHT22;10795;50.796;3.860;2022-08-18T14:00:19;32.40;99.90
21271;DHT22;10795;50.796;3.860;2022-08-18T14:02:46;32.20;99.90
21271;DHT22;10795;50.796;3.860;2022-08-18T14:05:13;31.30;99.90
21271;DHT22;10795;50.796;3.860;2022-08-18T14:07:40;30.90;99.90
21271;DHT22;10795;50.796;3.860;2022-08-18T14:10:07;30.80;99.90
21271;DHT22;10795;50.796;3.860;2022-08-18T14:12:33;30.20;99.90
21271;DHT22;10795;50.796;3.860;2022-08-18T14:14:59;30.10;99.90
21271;DHT22;10795;50.796;3.860;2022-08-18T14:17:25;30.50;99.90
21271;DHT22;10795;50.796;3.860;2022-08-18T14:19:51;30.70;99.90
21271;DHT22;10795;50.796;3.860;2022-08-18T14:22:36;30.80;99.90
21271;DHT22;10795;50.796;3.860;2022-08-18T14:25:20;31.30;99.90
21271;DHT22;10795;50.796;3.860;2022-08-18T14:28:04;31.50;99.90
21271;DHT22;10795;50.796;3.860;2022-08-18T14:30:29;31.50;99.90
21271;DHT22;10795;50.796;3.860;2022-08-18T14:32:56;31.80;99.90
21271;DHT22;10795;50.796;3.860;2022-08-18T14:35:22;31.60;99.90
21271;DHT22;10795;50.796;3.860;2022-08-18T14:37:47;31.40;99.90
21271;DHT22;10795;50.796;3.860;2022-08-18T14:40:14;31.40;99.90
21271;DHT22;10795;50.796;3.860;2022-08-18T14:42:40;31.50;99.90
21271;DHT22;10795;50.796;3.860;2022-08-18T14:45:07;31.40;99.90
21271;DHT22;10795;50.796;3.860;2022-08-18T14:47:33;31.30;99.90
21271;DHT22;10795;50.796;3.860;2022-08-18T14:49:58;31.10;99.90
21271;DHT22;10795;50.796;3.860;2022-08-18T14:52:25;31.30;99.90
21271;DHT22;10795;50.796;3.860;2022-08-18T14:54:52;31.00;99.90
21271;DHT22;10795;50.796;3.860;2022-08-18T14:57:17;30.80;99.90
21271;DHT22;10795;50.796;3.860;2022-08-18T14:59:45;30.60;99.90
21271;DHT22;10795;50.796;3.860;2022-08-18T15:02:11;30.30;99.90
21271;DHT22;10795;50.796;3.860;2022-08-18T15:04:37;30.60;99.90
21271;DHT22;10795;50.796;3.860;2022-08-18T15:07:03;30.60;99.90
21271;DHT22;10795;50.796;3.860;2022-08-18T15:09:28;30.90;99.90
21271;DHT22;10795;50.796;3.860;2022-08-18T15:11:55;30.60;99.90
21271;DHT22;10795;50.796;3.860;2022-08-18T15:14:20;31.00;99.90
21271;DHT22;10795;50.796;3.860;2022-08-18T15:16:46;31.00;99.90
21271;DHT22;10795;50.796;3.860;2022-08-18T15:19:13;31.20;99.90
21271;DHT22;10795;50.796;3.860;2022-08-18T15:21:38;31.10;99.90
21271;DHT22;10795;50.796;3.860;2022-08-18T15:24:22;31.20;99.90
21271;DHT22;10795;50.796;3.860;2022-08-18T15:27:07;30.70;99.90
21271;DHT22;10795;50.796;3.860;2022-08-18T15:29:32;30.20;99.90
21271;DHT22;10795;50.796;3.860;2022-08-18T15:31:58;30.70;99.90
21271;DHT22;10795;50.796;3.860;2022-08-18T15:34:24;30.80;99.90
21271;DHT22;10795;50.796;3.860;2022-08-18T15:36:53;30.70;99.90
21271;DHT22;10795;50.796;3.860;2022-08-18T15:39:20;30.10;99.90
21271;DHT22;10795;50.796;3.860;2022-08-18T15:41:45;30.30;99.90
21271;DHT22;10795;50.796;3.860;2022-08-18T15:44:14;30.40;99.90
21271;DHT22;10795;50.796;3.860;2022-08-18T15:46:40;30.30;99.90
21271;DHT22;10795;50.796;3.860;2022-08-18T15:49:06;30.00;99.90
21271;DHT22;10795;50.796;3.860;2022-08-18T15:51:33;29.80;99.90
21271;DHT22;10795;50.796;3.860;2022-08-18T15:53:59;30.10;99.90
21271;DHT22;10795;50.796;3.860;2022-08-18T15:56:24;29.80;99.90
21271;DHT22;10795;50.796;3.860;2022-08-18T15:58:50;29.70;99.90
21271;DHT22;10795;50.796;3.860;2022-08-18T16:01:17;29.90;99.90
21271;DHT22;10795;50.796;3.860;2022-08-18T16:03:46;29.80;99.90
21271;DHT22;10795;50.796;3.860;2022-08-18T16:06:20;29.80;99.90
21271;DHT22;10795;50.796;3.860;2022-08-18T16:08:49;29.60;99.90
21271;DHT22;10795;50.796;3.860;2022-08-18T16:11:14;29.70;99.90
21271;DHT22;10795;50.796;3.860;2022-08-18T16:13:40;29.80;99.90
21271;DHT22;10795;50.796;3.860;2022-08-18T16:16:14;30.10;99.90
21271;DHT22;10795;50.796;3.860;2022-08-18T16:18:40;30.00;99.90
21271;DHT22;10795;50.796;3.860;2022-08-18T16:21:06;30.20;99.90
21271;DHT22;10795;50.796;3.860;2022-08-18T16:23:36;30.20;99.90
21271;DHT22;10795;50.796;3.860;2022-08-18T16:26:02;30.00;99.90
21271;DHT22;10795;50.796;3.860;2022-08-18T16:28:27;30.00;99.90
21271;DHT22;10795;50.796;3.860;2022-08-18T16:30:53;29.70;99.90
21271;DHT22;10795;50.796;3.860;2022-08-18T16:33:19;29.50;99.90
21271;DHT22;10795;50.796;3.860;2022-08-18T16:35:44;29.60;99.90
21271;DHT22;10795;50.796;3.860;2022-08-18T16:38:12;29.30;99.90
21271;DHT22;10795;50.796;3.860;2022-08-18T16:40:38;29.20;99.90
21271;DHT22;10795;50.796;3.860;2022-08-18T16:43:05;29.20;99.90
21271;DHT22;10795;50.796;3.860;2022-08-18T16:45:32;29.30;99.90
21271;DHT22;10795;50.796;3.860;2022-08-18T16:48:00;28.80;99.90
21271;DHT22;10795;50.796;3.860;2022-08-18T16:50:26;28.90;99.90
21271;DHT22;10795;50.796;3.860;2022-08-18T16:52:52;28.70;99.90
21271;DHT22;10795;50.796;3.860;2022-08-18T16:55:18;28.60;99.90
21271;DHT22;10795;50.796;3.860;2022-08-18T16:57:44;28.30;99.90
21271;DHT22;10795;50.796;3.860;2022-08-18T17:00:29;28.60;99.90
21271;DHT22;10795;50.796;3.860;2022-08-18T17:03:16;28.70;99.90
21271;DHT22;10795;50.796;3.860;2022-08-18T17:06:01;28.50;99.90
21271;DHT22;10795;50.796;3.860;2022-08-18T17:08:27;28.50;99.90
21271;DHT22;10795;50.796;3.860;2022-08-18T17:10:53;28.70;99.90
21271;DHT22;10795;50.796;3.860;2022-08-18T17:13:19;28.60;99.90
21271;DHT22;10795;50.796;3.860;2022-08-18T17:15:46;28.60;99.90
21271;DHT22;10795;50.796;3.860;2022-08-18T17:18:14;28.30;99.90
21271;DHT22;10795;50.796;3.860;2022-08-18T17:20:39;28.40;99.90
21271;DHT22;10795;50.796;3.860;2022-08-18T17:23:05;28.40;99.90
21271;DHT22;10795;50.796;3.860;2022-08-18T17:25:31;28.20;99.90
21271;DHT22;10795;50.796;3.860;2022-08-18T17:27:57;28.30;99.90
21271;DHT22;10795;50.796;3.860;2022-08-18T17:30:27;27.90;99.90
21271;DHT22;10795;50.796;3.860;2022-08-18T17:32:59;27.80;99.90
21271;DHT22;10795;50.796;3.860;2022-08-18T17:35:29;27.80;99.90
21271;DHT22;10795;50.796;3.860;2022-08-18T17:37:59;27.90;99.90
21271;DHT22;10795;50.796;3.860;2022-08-18T17:40:27;28.00;99.90
21271;DHT22;10795;50.796;3.860;2022-08-18T17:42:53;28.00;99.90
21271;DHT22;10795;50.796;3.860;2022-08-18T17:45:20;28.00;99.90